sensor_id;sensor_type;location;lat;lon;timestamp;temperature;humidity
45066;DHT22;30830;53.704;10.004;2024-03-23T00:53:26;5.80;99.90
45066;DHT22;30830;53.704;10.004;2024-03-23T00:55:52;5.80;99.90
45066;DHT22;30830;53.704;10.004;2024-03-23T00:58:18;5.80;99.90
45066;DHT22;30830;53.704;10.004;2024-03-23T01:00:43;5.80;99.90
45066;DHT22;30830;53.704;10.004;2024-03-23T01:03:09;5.70;99.90
45066;DHT22;30830;53.704;10.004;2024-03-23T01:05:34;5.70;99.90
45066;DHT22;30830;53.704;10.004;2024-03-23T01:08:00;5.70;99.90
45066;DHT22;30830;53.704;10.004;2024-03-23T01:10:25;5.70;99.90
45066;DHT22;30830;53.704;10.004;2024-03-23T01:12:51;5.70;99.90
45066;DHT22;30830;53.704;10.004;2024-03-23T01:15:16;5.60;99.90
45066;DHT22;30830;53.704;10.004;2024-03-23T01:17:42;5.60;99.90
45066;DHT22;30830;53.704;10.004;2024-03-23T01:20:08;5.60;99.90
45066;DHT22;30830;53.704;10.004;2024-03-23T01:22:33;5.50;99.90
45066;DHT22;30830;53.704;10.004;2024-03-23T01:24:59;5.50;99.90
45066;DHT22;30830;53.704;10.004;2024-03-23T01:27:24;5.50;99.90
45066;DHT22;30830;53.704;10.004;2024-03-23T01:29:50;5.50;99.90
45066;DHT22;30830;53.704;10.004;2024-03-23T01:32:23;5.50;99.90
45066;DHT22;30830;53.704;10.004;2024-03-23T01:34:49;5.50;99.90
45066;DHT22;30830;53.704;10.004;2024-03-23T01:37:14;5.40;99.90
45066;DHT22;30830;53.704;10.004;2024-03-23T01:39:40;5.40;99.90
45066;DHT22;30830;53.704;10.004;2024-03-23T01:42:06;5.40;99.90
45066;DHT22;30830;53.704;10.004;2024-03-23T01:44:31;5.40;99.90
45066;DHT22;30830;53.704;10.004;2024-03-23T01:46:57;5.40;99.90
45066;DHT22;30830;53.704;10.004;2024-03-23T01:49:22;5.30;99.90
45066;DHT22;30830;53.704;10.004;2024-03-23T01:51:48;5.30;99.90
45066;DHT22;30830;53.704;10.004;2024-03-23T01:54:15;5.30;99.90
45066;DHT22;30830;53.704;10.004;2024-03-23T01:56:41;5.30;99.90
45066;DHT22;30830;53.704;10.004;2024-03-23T01:59:07;5.20;99.90
45066;DHT22;30830;53.704;10.004;2024-03-23T02:01:35;5.20;99.90
45066;DHT22;30830;53.704;10.004;2024-03-23T02:04:03;5.20;99.90
45066;DHT22;30830;53.704;10.004;2024-03-23T02:06:29;5.20;99.90
45066;DHT22;30830;53.704;10.004;2024-03-23T02:08:55;5.10;99.90
45066;DHT22;30830;53.704;10.004;2024-03-23T02:11:21;5.10;99.90
45066;DHT22;30830;53.704;10.004;2024-03-23T02:13:46;5.10;99.90
45066;DHT22;30830;53.704;10.004;2024-03-23T02:16:12;5.10;99.90
45066;DHT22;30830;53.704;10.004;2024-03-23T02:18:38;5.00;99.90
45066;DHT22;30830;53.704;10.004;2024-03-23T02:21:04;5.00;99.90
45066;DHT22;30830;53.704;10.004;2024-03-23T02:23:30;5.00;99.90
45066;DHT22;30830;53.704;10.004;2024-03-23T02:25:56;4.90;99.90
45066;DHT22;30830;53.704;10.004;2024-03-23T02:28:22;4.90;99.90
45066;DHT22;30830;53.704;10.004;2024-03-23T02:30:49;4.90;99.90
45066;DHT22;30830;53.704;10.004;2024-03-23T02:33:14;4.90;99.90
45066;DHT22;30830;53.704;10.004;2024-03-23T02:35:40;4.90;99.90
45066;DHT22;30830;53.704;10.004;2024-03-23T02:38:06;4.90;99.90
45066;DHT22;30830;53.704;10.004;2024-03-23T02:40:31;4.80;99.90
45066;DHT22;30830;53.704;10.004;2024-03-23T02:42:57;4.90;99.90
45066;DHT22;30830;53.704;10.004;2024-03-23T02:45:22;4.80;99.90
45066;DHT22;30830;53.704;10.004;2024-03-23T02:47:48;4.80;99.90
45066;DHT22;30830;53.704;10.004;2024-03-23T02:50:18;4.80;99.90
45066;DHT22;30830;53.704;10.004;2024-03-23T02:52:43;4.80;99.90
45066;DHT22;30830;53.704;10.004;2024-03-23T02:55:09;4.80;99.90
45066;DHT22;30830;53.704;10.004;2024-03-23T02:57:34;4.80;99.90
45066;DHT22;30830;53.704;10.004;2024-03-23T03:00:00;4.80;99.90
45066;DHT22;30830;53.704;10.004;2024-03-23T03:02:26;4.80;99.90
45066;DHT22;30830;53.704;10.004;2024-03-23T03:04:51;4.80;99.90
45066;DHT22;30830;53.704;10.004;2024-03-23T03:07:17;4.70;99.90
45066;DHT22;30830;53.704;10.004;2024-03-23T03:09:43;4.70;99.90
45066;DHT22;30830;53.704;10.004;2024-03-23T03:12:08;4.70;99.90
45066;DHT22;30830;53.704;10.004;2024-03-23T03:14:34;4.70;99.90
45066;DHT22;30830;53.704;10.004;2024-03-23T03:17:00;4.70;99.90
45066;DHT22;30830;53.704;10.004;2024-03-23T03:19:26;4.70;99.90
45066;DHT22;30830;53.704;10.004;2024-03-23T03:21:51;4.70;99.90
45066;DHT22;30830;53.704;10.004;2024-03-23T03:24:17;4.60;99.90
45066;DHT22;30830;53.704;10.004;2024-03-23T03:26:43;4.60;99.90
45066;DHT22;30830;53.704;10.004;2024-03-23T03:29:08;4.60;99.90
45066;DHT22;30830;53.704;10.004;2024-03-23T03:31:34;4.50;99.90
45066;DHT22;30830;53.704;10.004;2024-03-23T03:33:59;4.50;99.90
45066;DHT22;30830;53.704;10.004;2024-03-23T03:36:25;4.50;99.90
45066;DHT22;30830;53.704;10.004;2024-03-23T03:38:51;4.50;99.90
45066;DHT22;30830;53.704;10.004;2024-03-23T03:41:17;4.50;99.90
45066;DHT22;30830;53.704;10.004;2024-03-23T03:43:43;4.50;99.90
45066;DHT22;30830;53.704;10.004;2024-03-23T03:46:08;4.40;99.90
45066;DHT22;30830;53.704;10.004;2024-03-23T03:48:35;4.40;99.90
45066;DHT22;30830;53.704;10.004;2024-03-23T03:51:00;4.40;99.90
45066;DHT22;30830;53.704;10.004;2024-03-23T03:53:26;4.40;99.90
45066;DHT22;30830;53.704;10.004;2024-03-23T03:55:52;4.40;99.90
45066;DHT22;30830;53.704;10.004;2024-03-23T03:58:17;4.40;99.90
45066;DHT22;30830;53.704;10.004;2024-03-23T04:00:43;4.30;99.90
45066;DHT22;30830;53.704;10.004;2024-03-23T04:03:09;4.30;99.90
45066;DHT22;30830;53.704;10.004;2024-03-23T04:05:34;4.30;99.90
45066;DHT22;30830;53.704;10.004;2024-03-23T04:08:00;4.30;99.90
45066;DHT22;30830;53.704;10.004;2024-03-23T04:10:25;4.30;99.90
45066;DHT22;30830;53.704;10.004;2024-03-23T04:12:52;4.20;99.90
45066;DHT22;30830;53.704;10.004;2024-03-23T04:15:17;4.20;99.90
45066;DHT22;30830;53.704;10.004;2024-03-23T04:17:43;4.20;99.90
45066;DHT22;30830;53.704;10.004;2024-03-23T04:20:09;4.20;99.90
45066;DHT22;30830;53.704;10.004;2024-03-23T04:22:39;4.20;99.90
45066;DHT22;30830;53.704;10.004;2024-03-23T04:25:06;4.20;99.90
45066;DHT22;30830;53.704;10.004;2024-03-23T04:27:36;4.20;99.90
45066;DHT22;30830;53.704;10.004;2024-03-23T04:30:03;4.10;99.90
45066;DHT22;30830;53.704;10.004;2024-03-23T04:32:30;4.10;99.90
45066;DHT22;30830;53.704;10.004;2024-03-23T04:34:56;4.10;99.90
45066;DHT22;30830;53.704;10.004;2024-03-23T04:37:22;4.10;99.90
45066;DHT22;30830;53.704;10.004;2024-03-23T04:39:48;4.10;99.90
45066;DHT22;30830;53.704;10.004;2024-03-23T04:42:15;4.10;99.90
45066;DHT22;30830;53.704;10.004;2024-03-23T04:44:41;4.00;99.90
45066;DHT22;30830;53.704;10.004;2024-03-23T04:47:06;4.00;99.90
45066;DHT22;30830;53.704;10.004;2024-03-23T04:49:32;4.00;99.90
45066;DHT22;30830;53.704;10.004;2024-03-23T04:51:58;4.00;99.90
45066;DHT22;30830;53.704;10.004;2024-03-23T04:54:23;4.00;99.90
45066;DHT22;30830;53.704;10.004;2024-03-23T04:56:49;4.00;99.90
45066;DHT22;30830;53.704;10.004;2024-03-23T04:59:15;3.90;99.90
45066;DHT22;30830;53.704;10.004;2024-03-23T05:01:40;3.90;99.90
45066;DHT22;30830;53.704;10.004;2024-03-23T05:04:08;3.90;99.90
45066;DHT22;30830;53.704;10.004;2024-03-23T05:06:33;3.90;99.90
45066;DHT22;30830;53.704;10.004;2024-03-23T05:09:00;3.90;99.90
45066;DHT22;30830;53.704;10.004;2024-03-23T05:11:28;3.90;99.90
45066;DHT22;30830;53.704;10.004;2024-03-23T05:13:54;3.90;99.90
45066;DHT22;30830;53.704;10.004;2024-03-23T05:16:19;3.90;99.90
45066;DHT22;30830;53.704;10.004;2024-03-23T05:18:45;3.90;99.90
45066;DHT22;30830;53.704;10.004;2024-03-23T05:21:10;3.90;99.90
45066;DHT22;30830;53.704;10.004;2024-03-23T05:23:36;3.90;99.90
45066;DHT22;30830;53.704;10.004;2024-03-23T05:26:03;3.90;99.90
45066;DHT22;30830;53.704;10.004;2024-03-23T05:28:29;3.90;99.90
45066;DHT22;30830;53.704;10.004;2024-03-23T05:30:55;3.90;99.90
45066;DHT22;30830;53.704;10.004;2024-03-23T05:33:22;3.90;99.90
45066;DHT22;30830;53.704;10.004;2024-03-23T05:35:58;3.90;99.90
45066;DHT22;30830;53.704;10.004;2024-03-23T05:38:24;3.90;99.90
45066;DHT22;30830;53.704;10.004;2024-03-23T05:40:59;3.90;99.90
45066;DHT22;30830;53.704;10.004;2024-03-23T05:43:26;3.90;99.90
45066;DHT22;30830;53.704;10.004;2024-03-23T05:45:55;3.90;99.90
45066;DHT22;30830;53.704;10.004;2024-03-23T05:48:21;4.00;99.90
45066;DHT22;30830;53.704;10.004;2024-03-23T05:50:48;4.00;99.90
45066;DHT22;30830;53.704;10.004;2024-03-23T05:53:18;4.00;99.90
45066;DHT22;30830;53.704;10.004;2024-03-23T05:55:45;4.00;99.90
45066;DHT22;30830;53.704;10.004;2024-03-23T05:58:14;4.00;99.90
45066;DHT22;30830;53.704;10.004;2024-03-23T06:00:39;4.00;99.90
45066;DHT22;30830;53.704;10.004;2024-03-23T06:03:05;4.10;99.90
45066;DHT22;30830;53.704;10.004;2024-03-23T06:05:31;4.10;99.90
45066;DHT22;30830;53.704;10.004;2024-03-23T06:07:56;4.10;99.90
45066;DHT22;30830;53.704;10.004;2024-03-23T06:10:22;4.10;99.90
45066;DHT22;30830;53.704;10.004;2024-03-23T06:12:48;4.10;99.90
45066;DHT22;30830;53.704;10.004;2024-03-23T06:15:14;4.20;99.90
45066;DHT22;30830;53.704;10.004;2024-03-23T06:17:40;4.20;99.90
45066;DHT22;30830;53.704;10.004;2024-03-23T06:20:06;4.20;99.90
45066;DHT22;30830;53.704;10.004;2024-03-23T06:22:32;4.30;99.90
45066;DHT22;30830;53.704;10.004;2024-03-23T06:24:59;4.30;99.90
45066;DHT22;30830;53.704;10.004;2024-03-23T06:27:24;4.30;99.90
45066;DHT22;30830;53.704;10.004;2024-03-23T06:29:50;4.30;99.90
45066;DHT22;30830;53.704;10.004;2024-03-23T06:32:15;4.40;99.90
45066;DHT22;30830;53.704;10.004;2024-03-23T06:34:44;4.40;99.90
45066;DHT22;30830;53.704;10.004;2024-03-23T06:37:10;4.40;99.90
45066;DHT22;30830;53.704;10.004;2024-03-23T06:39:39;4.50;99.90
45066;DHT22;30830;53.704;10.004;2024-03-23T06:42:05;4.50;99.90
45066;DHT22;30830;53.704;10.004;2024-03-23T06:44:30;4.50;99.90
45066;DHT22;30830;53.704;10.004;2024-03-23T06:46:56;4.60;99.90
45066;DHT22;30830;53.704;10.004;2024-03-23T06:49:23;4.70;99.90
45066;DHT22;30830;53.704;10.004;2024-03-23T06:51:48;4.70;99.90
45066;DHT22;30830;53.704;10.004;2024-03-23T06:54:14;4.70;99.90
45066;DHT22;30830;53.704;10.004;2024-03-23T06:56:40;4.70;99.90
45066;DHT22;30830;53.704;10.004;2024-03-23T06:59:06;4.70;99.90
45066;DHT22;30830;53.704;10.004;2024-03-23T07:01:32;4.80;99.90
45066;DHT22;30830;53.704;10.004;2024-03-23T07:03:57;4.80;99.90
45066;DHT22;30830;53.704;10.004;2024-03-23T07:06:23;4.80;99.90
45066;DHT22;30830;53.704;10.004;2024-03-23T07:08:48;4.80;99.90
45066;DHT22;30830;53.704;10.004;2024-03-23T07:11:21;4.80;99.90
45066;DHT22;30830;53.704;10.004;2024-03-23T07:13:49;4.80;99.90
45066;DHT22;30830;53.704;10.004;2024-03-23T07:16:15;4.80;99.90
45066;DHT22;30830;53.704;10.004;2024-03-23T07:18:41;4.80;99.90
45066;DHT22;30830;53.704;10.004;2024-03-23T07:21:07;4.90;99.90
45066;DHT22;30830;53.704;10.004;2024-03-23T07:23:32;4.90;99.90
45066;DHT22;30830;53.704;10.004;2024-03-23T07:26:02;4.90;99.90
45066;DHT22;30830;53.704;10.004;2024-03-23T07:28:30;5.10;99.90
45066;DHT22;30830;53.704;10.004;2024-03-23T07:31:07;5.20;99.90
45066;DHT22;30830;53.704;10.004;2024-03-23T07:33:35;5.40;99.90
45066;DHT22;30830;53.704;10.004;2024-03-23T07:36:01;5.50;99.90
45066;DHT22;30830;53.704;10.004;2024-03-23T07:38:30;5.60;99.90
45066;DHT22;30830;53.704;10.004;2024-03-23T07:41:09;5.70;99.90
45066;DHT22;30830;53.704;10.004;2024-03-23T07:43:36;5.70;99.90
45066;DHT22;30830;53.704;10.004;2024-03-23T07:46:02;5.80;99.90
45066;DHT22;30830;53.704;10.004;2024-03-23T07:48:29;5.80;99.90
45066;DHT22;30830;53.704;10.004;2024-03-23T07:51:02;5.90;99.90
45066;DHT22;30830;53.704;10.004;2024-03-23T07:53:29;6.00;99.90
45066;DHT22;30830;53.704;10.004;2024-03-23T07:56:00;6.20;99.90
45066;DHT22;30830;53.704;10.004;2024-03-23T07:58:26;6.30;99.90
45066;DHT22;30830;53.704;10.004;2024-03-23T08:00:53;6.50;99.90
45066;DHT22;30830;53.704;10.004;2024-03-23T08:03:19;6.70;99.90
45066;DHT22;30830;53.704;10.004;2024-03-23T08:05:44;6.80;99.90
45066;DHT22;30830;53.704;10.004;2024-03-23T08:08:10;6.90;99.90
45066;DHT22;30830;53.704;10.004;2024-03-23T08:10:36;7.10;99.90
45066;DHT22;30830;53.704;10.004;2024-03-23T08:13:02;7.20;99.90
45066;DHT22;30830;53.704;10.004;2024-03-23T08:15:30;7.30;99.90
45066;DHT22;30830;53.704;10.004;2024-03-23T08:17:58;7.40;99.90
45066;DHT22;30830;53.704;10.004;2024-03-23T08:20:24;7.50;99.90
45066;DHT22;30830;53.704;10.004;2024-03-23T08:22:49;7.70;99.90
45066;DHT22;30830;53.704;10.004;2024-03-23T08:25:15;7.90;99.90
45066;DHT22;30830;53.704;10.004;2024-03-23T08:27:41;7.90;99.90
45066;DHT22;30830;53.704;10.004;2024-03-23T08:30:07;8.10;99.90
45066;DHT22;30830;53.704;10.004;2024-03-23T08:32:32;8.20;99.90
45066;DHT22;30830;53.704;10.004;2024-03-23T08:34:58;8.30;99.90
45066;DHT22;30830;53.704;10.004;2024-03-23T08:37:23;8.40;99.90
45066;DHT22;30830;53.704;10.004;2024-03-23T08:39:51;8.50;99.90
45066;DHT22;30830;53.704;10.004;2024-03-23T08:42:16;8.40;99.90
45066;DHT22;30830;53.704;10.004;2024-03-23T08:44:42;8.50;99.90
45066;DHT22;30830;53.704;10.004;2024-03-23T08:47:11;8.70;99.90
45066;DHT22;30830;53.704;10.004;2024-03-23T08:49:37;8.70;99.90
45066;DHT22;30830;53.704;10.004;2024-03-23T08:52:03;8.90;99.90
45066;DHT22;30830;53.704;10.004;2024-03-23T08:54:28;8.90;99.90
45066;DHT22;30830;53.704;10.004;2024-03-23T08:56:56;9.00;99.90
45066;DHT22;30830;53.704;10.004;2024-03-23T08:59:22;9.10;99.90
45066;DHT22;30830;53.704;10.004;2024-03-23T09:01:49;9.10;99.90
45066;DHT22;30830;53.704;10.004;2024-03-23T09:04:14;9.30;99.90
45066;DHT22;30830;53.704;10.004;2024-03-23T09:06:42;9.50;99.90
45066;DHT22;30830;53.704;10.004;2024-03-23T09:09:08;9.30;99.90
45066;DHT22;30830;53.704;10.004;2024-03-23T09:11:33;9.10;99.90
45066;DHT22;30830;53.704;10.004;2024-03-23T09:13:59;9.00;99.90
45066;DHT22;30830;53.704;10.004;2024-03-23T09:16:25;8.80;99.90
45066;DHT22;30830;53.704;10.004;2024-03-23T09:18:51;8.70;99.90
45066;DHT22;30830;53.704;10.004;2024-03-23T09:21:17;8.50;99.90
45066;DHT22;30830;53.704;10.004;2024-03-23T09:23:45;8.50;99.90
45066;DHT22;30830;53.704;10.004;2024-03-23T09:26:11;8.60;99.90
45066;DHT22;30830;53.704;10.004;2024-03-23T09:28:37;8.60;99.90
45066;DHT22;30830;53.704;10.004;2024-03-23T09:31:03;8.50;99.90
45066;DHT22;30830;53.704;10.004;2024-03-23T09:33:29;8.40;99.90
45066;DHT22;30830;53.704;10.004;2024-03-23T09:35:55;8.50;99.90
45066;DHT22;30830;53.704;10.004;2024-03-23T09:38:24;8.80;99.90
45066;DHT22;30830;53.704;10.004;2024-03-23T09:40:52;8.90;99.90
45066;DHT22;30830;53.704;10.004;2024-03-23T09:43:19;9.20;99.90
45066;DHT22;30830;53.704;10.004;2024-03-23T09:45:45;9.30;99.90
45066;DHT22;30830;53.704;10.004;2024-03-23T09:48:11;9.30;99.90
45066;DHT22;30830;53.704;10.004;2024-03-23T09:50:38;9.30;99.90
45066;DHT22;30830;53.704;10.004;2024-03-23T09:53:06;9.30;99.90
45066;DHT22;30830;53.704;10.004;2024-03-23T09:55:32;9.20;99.90
45066;DHT22;30830;53.704;10.004;2024-03-23T09:57:58;9.10;99.90
45066;DHT22;30830;53.704;10.004;2024-03-23T10:00:23;9.20;99.90
45066;DHT22;30830;53.704;10.004;2024-03-23T10:02:49;9.20;99.90
45066;DHT22;30830;53.704;10.004;2024-03-23T10:05:21;9.10;99.90
45066;DHT22;30830;53.704;10.004;2024-03-23T10:07:49;9.10;99.90
45066;DHT22;30830;53.704;10.004;2024-03-23T10:10:16;9.00;99.90
45066;DHT22;30830;53.704;10.004;2024-03-23T10:12:48;9.00;99.90
45066;DHT22;30830;53.704;10.004;2024-03-23T10:15:21;9.10;99.90
45066;DHT22;30830;53.704;10.004;2024-03-23T10:17:48;9.30;99.90
45066;DHT22;30830;53.704;10.004;2024-03-23T10:20:22;9.60;99.90
45066;DHT22;30830;53.704;10.004;2024-03-23T10:22:51;9.80;99.90
45066;DHT22;30830;53.704;10.004;2024-03-23T10:25:17;10.00;99.90
45066;DHT22;30830;53.704;10.004;2024-03-23T10:27:43;9.90;99.90
45066;DHT22;30830;53.704;10.004;2024-03-23T10:30:13;9.90;99.90
45066;DHT22;30830;53.704;10.004;2024-03-23T10:32:42;9.90;99.90
45066;DHT22;30830;53.704;10.004;2024-03-23T10:35:18;9.70;99.90
45066;DHT22;30830;53.704;10.004;2024-03-23T10:37:44;9.60;99.90
45066;DHT22;30830;53.704;10.004;2024-03-23T10:40:12;9.50;99.90
45066;DHT22;30830;53.704;10.004;2024-03-23T10:42:38;9.30;99.90
45066;DHT22;30830;53.704;10.004;2024-03-23T10:45:05;9.40;99.90
45066;DHT22;30830;53.704;10.004;2024-03-23T10:47:32;9.60;99.90
45066;DHT22;30830;53.704;10.004;2024-03-23T10:49:58;9.70;99.90
45066;DHT22;30830;53.704;10.004;2024-03-23T10:52:24;9.70;99.90
45066;DHT22;30830;53.704;10.004;2024-03-23T10:54:51;9.50;99.90
45066;DHT22;30830;53.704;10.004;2024-03-23T10:57:23;9.50;99.90
45066;DHT22;30830;53.704;10.004;2024-03-23T10:59:51;9.40;99.90
45066;DHT22;30830;53.704;10.004;2024-03-23T11:02:21;9.30;99.90
45066;DHT22;30830;53.704;10.004;2024-03-23T11:04:47;9.30;99.90
45066;DHT22;30830;53.704;10.004;2024-03-23T11:07:49;9.20;99.90
45066;DHT22;30830;53.704;10.004;2024-03-23T11:12:50;9.20;99.90
45066;DHT22;30830;53.704;10.004;2024-03-23T11:15:21;9.30;99.90
45066;DHT22;30830;53.704;10.004;2024-03-23T11:18:05;9.30;99.90
45066;DHT22;30830;53.704;10.004;2024-03-23T11:20:33;9.20;99.90
45066;DHT22;30830;53.704;10.004;2024-03-23T11:23:01;9.10;99.90
45066;DHT22;30830;53.704;10.004;2024-03-23T11:25:36;9.10;99.90
45066;DHT22;30830;53.704;10.004;2024-03-23T11:28:11;9.20;99.90
45066;DHT22;30830;53.704;10.004;2024-03-23T11:30:37;9.40;99.90
45066;DHT22;30830;53.704;10.004;2024-03-23T11:33:05;9.40;99.90
45066;DHT22;30830;53.704;10.004;2024-03-23T11:35:34;9.40;99.90
45066;DHT22;30830;53.704;10.004;2024-03-23T11:38:16;9.00;99.90
45066;DHT22;30830;53.704;10.004;2024-03-23T11:40:47;8.90;99.90
45066;DHT22;30830;53.704;10.004;2024-03-23T11:43:17;9.00;99.90
45066;DHT22;30830;53.704;10.004;2024-03-23T11:45:44;9.10;99.90
45066;DHT22;30830;53.704;10.004;2024-03-23T11:48:13;9.20;99.90
45066;DHT22;30830;53.704;10.004;2024-03-23T11:50:41;9.30;99.90
45066;DHT22;30830;53.704;10.004;2024-03-23T11:53:20;9.40;99.90
45066;DHT22;30830;53.704;10.004;2024-03-23T11:55:54;9.30;99.90
45066;DHT22;30830;53.704;10.004;2024-03-23T11:58:21;8.90;99.90
45066;DHT22;30830;53.704;10.004;2024-03-23T12:00:56;8.50;99.90
45066;DHT22;30830;53.704;10.004;2024-03-23T12:03:44;8.10;99.90
45066;DHT22;30830;53.704;10.004;2024-03-23T12:06:09;7.70;99.90
45066;DHT22;30830;53.704;10.004;2024-03-23T12:08:35;7.30;99.90
45066;DHT22;30830;53.704;10.004;2024-03-23T12:11:12;7.20;99.90
45066;DHT22;30830;53.704;10.004;2024-03-23T12:13:39;7.10;99.90
45066;DHT22;30830;53.704;10.004;2024-03-23T12:16:24;7.00;99.90
45066;DHT22;30830;53.704;10.004;2024-03-23T12:18:50;6.90;99.90
45066;DHT22;30830;53.704;10.004;2024-03-23T12:21:20;7.00;99.90
45066;DHT22;30830;53.704;10.004;2024-03-23T12:23:48;7.00;99.90
45066;DHT22;30830;53.704;10.004;2024-03-23T12:26:15;7.10;99.90
45066;DHT22;30830;53.704;10.004;2024-03-23T12:28:42;7.20;99.90
45066;DHT22;30830;53.704;10.004;2024-03-23T12:31:07;7.40;99.90
45066;DHT22;30830;53.704;10.004;2024-03-23T12:33:33;7.60;99.90
45066;DHT22;30830;53.704;10.004;2024-03-23T12:35:59;7.90;99.90
45066;DHT22;30830;53.704;10.004;2024-03-23T12:38:27;8.10;99.90
45066;DHT22;30830;53.704;10.004;2024-03-23T12:40:52;8.10;99.90
45066;DHT22;30830;53.704;10.004;2024-03-23T12:43:18;7.90;99.90
45066;DHT22;30830;53.704;10.004;2024-03-23T12:45:50;7.70;99.90
45066;DHT22;30830;53.704;10.004;2024-03-23T12:48:16;7.50;99.90
45066;DHT22;30830;53.704;10.004;2024-03-23T12:50:42;7.30;99.90
45066;DHT22;30830;53.704;10.004;2024-03-23T12:53:13;7.20;99.90
45066;DHT22;30830;53.704;10.004;2024-03-23T12:55:39;7.00;99.90
45066;DHT22;30830;53.704;10.004;2024-03-23T12:58:04;6.90;99.90
45066;DHT22;30830;53.704;10.004;2024-03-23T13:00:32;6.90;99.90
45066;DHT22;30830;53.704;10.004;2024-03-23T13:02:58;6.90;99.90
45066;DHT22;30830;53.704;10.004;2024-03-23T13:05:23;7.00;99.90
45066;DHT22;30830;53.704;10.004;2024-03-23T13:07:49;7.20;99.90
45066;DHT22;30830;53.704;10.004;2024-03-23T13:10:14;7.30;99.90
45066;DHT22;30830;53.704;10.004;2024-03-23T13:12:41;7.50;99.90
45066;DHT22;30830;53.704;10.004;2024-03-23T13:15:08;7.60;99.90
45066;DHT22;30830;53.704;10.004;2024-03-23T13:17:34;7.70;99.90
45066;DHT22;30830;53.704;10.004;2024-03-23T13:19:59;7.70;99.90
45066;DHT22;30830;53.704;10.004;2024-03-23T13:22:25;7.90;99.90
45066;DHT22;30830;53.704;10.004;2024-03-23T13:24:50;8.00;99.90
45066;DHT22;30830;53.704;10.004;2024-03-23T13:27:16;8.00;99.90
45066;DHT22;30830;53.704;10.004;2024-03-23T13:29:42;8.10;99.90
45066;DHT22;30830;53.704;10.004;2024-03-23T13:32:07;8.00;99.90
45066;DHT22;30830;53.704;10.004;2024-03-23T13:34:33;7.60;99.90
45066;DHT22;30830;53.704;10.004;2024-03-23T13:37:00;7.20;99.90
45066;DHT22;30830;53.704;10.004;2024-03-23T13:39:26;6.90;99.90
45066;DHT22;30830;53.704;10.004;2024-03-23T13:41:53;6.80;99.90
45066;DHT22;30830;53.704;10.004;2024-03-23T13:44:21;6.60;99.90
45066;DHT22;30830;53.704;10.004;2024-03-23T13:46:47;6.40;99.90
45066;DHT22;30830;53.704;10.004;2024-03-23T13:49:39;6.50;99.90
45066;DHT22;30830;53.704;10.004;2024-03-23T13:52:06;6.60;99.90
45066;DHT22;30830;53.704;10.004;2024-03-23T13:54:32;6.70;99.90
45066;DHT22;30830;53.704;10.004;2024-03-23T13:57:00;6.70;99.90
45066;DHT22;30830;53.704;10.004;2024-03-23T13:59:27;6.70;99.90
45066;DHT22;30830;53.704;10.004;2024-03-23T14:01:53;6.70;99.90
45066;DHT22;30830;53.704;10.004;2024-03-23T14:04:18;6.70;99.90
45066;DHT22;30830;53.704;10.004;2024-03-23T14:06:48;6.80;99.90
45066;DHT22;30830;53.704;10.004;2024-03-23T14:09:14;6.90;99.90
45066;DHT22;30830;53.704;10.004;2024-03-23T14:11:41;7.00;99.90
45066;DHT22;30830;53.704;10.004;2024-03-23T14:14:08;7.20;99.90
45066;DHT22;30830;53.704;10.004;2024-03-23T14:16:34;7.30;99.90
45066;DHT22;30830;53.704;10.004;2024-03-23T14:19:00;7.40;99.90
45066;DHT22;30830;53.704;10.004;2024-03-23T14:21:25;7.40;99.90
45066;DHT22;30830;53.704;10.004;2024-03-23T14:23:51;7.40;99.90
45066;DHT22;30830;53.704;10.004;2024-03-23T14:26:17;7.40;99.90
45066;DHT22;30830;53.704;10.004;2024-03-23T14:28:43;7.50;99.90
45066;DHT22;30830;53.704;10.004;2024-03-23T14:31:08;7.50;99.90
45066;DHT22;30830;53.704;10.004;2024-03-23T14:33:39;7.50;99.90
45066;DHT22;30830;53.704;10.004;2024-03-23T14:36:10;7.40;99.90
45066;DHT22;30830;53.704;10.004;2024-03-23T14:38:36;7.50;99.90
45066;DHT22;30830;53.704;10.004;2024-03-23T14:41:08;7.70;99.90
45066;DHT22;30830;53.704;10.004;2024-03-23T14:43:34;7.90;99.90
45066;DHT22;30830;53.704;10.004;2024-03-23T14:46:12;8.00;99.90
45066;DHT22;30830;53.704;10.004;2024-03-23T14:48:39;8.10;99.90
45066;DHT22;30830;53.704;10.004;2024-03-23T14:51:05;8.00;99.90
45066;DHT22;30830;53.704;10.004;2024-03-23T14:53:35;8.00;99.90
45066;DHT22;30830;53.704;10.004;2024-03-23T14:56:02;7.90;99.90
45066;DHT22;30830;53.704;10.004;2024-03-23T14:58:29;8.00;99.90
45066;DHT22;30830;53.704;10.004;2024-03-23T15:01:02;7.90;99.90
45066;DHT22;30830;53.704;10.004;2024-03-23T15:03:28;7.80;99.90
45066;DHT22;30830;53.704;10.004;2024-03-23T15:05:55;7.80;99.90
45066;DHT22;30830;53.704;10.004;2024-03-23T15:08:26;7.80;99.90
45066;DHT22;30830;53.704;10.004;2024-03-23T15:10:53;7.90;99.90
45066;DHT22;30830;53.704;10.004;2024-03-23T15:13:19;8.00;99.90
45066;DHT22;30830;53.704;10.004;2024-03-23T15:15:44;8.10;99.90
45066;DHT22;30830;53.704;10.004;2024-03-23T15:18:14;8.20;99.90
45066;DHT22;30830;53.704;10.004;2024-03-23T15:20:58;8.10;99.90
45066;DHT22;30830;53.704;10.004;2024-03-23T15:23:31;8.10;99.90
45066;DHT22;30830;53.704;10.004;2024-03-23T15:26:01;8.00;99.90
45066;DHT22;30830;53.704;10.004;2024-03-23T15:28:27;8.00;99.90
45066;DHT22;30830;53.704;10.004;2024-03-23T15:31:13;7.90;99.90
45066;DHT22;30830;53.704;10.004;2024-03-23T15:33:39;7.80;99.90
45066;DHT22;30830;53.704;10.004;2024-03-23T15:36:05;7.70;99.90
45066;DHT22;30830;53.704;10.004;2024-03-23T15:38:31;7.70;99.90
45066;DHT22;30830;53.704;10.004;2024-03-23T15:40:58;7.70;99.90
45066;DHT22;30830;53.704;10.004;2024-03-23T15:43:23;7.60;99.90
45066;DHT22;30830;53.704;10.004;2024-03-23T15:46:00;7.60;99.90
45066;DHT22;30830;53.704;10.004;2024-03-23T15:48:30;7.50;99.90
45066;DHT22;30830;53.704;10.004;2024-03-23T15:51:03;7.40;99.90
45066;DHT22;30830;53.704;10.004;2024-03-23T15:53:31;7.30;99.90
45066;DHT22;30830;53.704;10.004;2024-03-23T15:56:03;7.20;99.90
45066;DHT22;30830;53.704;10.004;2024-03-23T15:58:31;7.10;99.90
45066;DHT22;30830;53.704;10.004;2024-03-23T16:00:58;7.10;99.90
45066;DHT22;30830;53.704;10.004;2024-03-23T16:03:24;7.10;99.90
45066;DHT22;30830;53.704;10.004;2024-03-23T16:05:57;7.00;99.90
45066;DHT22;30830;53.704;10.004;2024-03-23T16:08:23;7.00;99.90
45066;DHT22;30830;53.704;10.004;2024-03-23T16:10:50;7.00;99.90
45066;DHT22;30830;53.704;10.004;2024-03-23T16:13:16;6.80;99.90
45066;DHT22;30830;53.704;10.004;2024-03-23T16:15:42;6.70;99.90
45066;DHT22;30830;53.704;10.004;2024-03-23T16:18:08;6.60;99.90
45066;DHT22;30830;53.704;10.004;2024-03-23T16:20:36;6.50;99.90
45066;DHT22;30830;53.704;10.004;2024-03-23T16:23:02;6.30;99.90
45066;DHT22;30830;53.704;10.004;2024-03-23T16:25:28;6.20;99.90